createdAt,value
2022-11-16T00:00:07.471Z,7.40
2022-11-16T00:00:17.210Z,7.60
2022-11-16T00:00:27.430Z,7.40
2022-11-16T00:00:37.331Z,7.30
2022-11-16T00:00:47.430Z,7.40
2022-11-16T00:00:57.359Z,7.50
2022-11-16T00:01:07.417Z,7.50
2022-11-16T00:01:17.235Z,7.50
2022-11-16T00:01:27.320Z,7.60
2022-11-16T00:01:37.349Z,7.60
2022-11-16T00:01:47.447Z,7.80
2022-11-16T00:01:57.433Z,7.60
2022-11-16T00:02:07.329Z,7.70
2022-11-16T00:02:17.289Z,7.50
2022-11-16T00:02:27.471Z,7.70
2022-11-16T00:02:37.558Z,7.80
2022-11-16T00:02:47.287Z,7.70
2022-11-16T00:02:57.438Z,7.70
2022-11-16T00:03:07.153Z,7.10
2022-11-16T00:03:17.390Z,7.30
2022-11-16T00:03:27.459Z,7.10
2022-11-16T00:03:37.367Z,7.70
2022-11-16T00:03:47.236Z,7.50
2022-11-16T00:03:57.198Z,7.80
2022-11-16T00:04:07.554Z,7.80
2022-11-16T00:04:17.261Z,7.80
2022-11-16T00:04:27.387Z,7.70
2022-11-16T00:04:37.308Z,7.30
2022-11-16T00:04:47.280Z,7.30
2022-11-16T00:04:57.250Z,7.20
2022-11-16T00:05:07.446Z,7.40
2022-11-16T00:05:17.413Z,7.60
2022-11-16T00:05:28.630Z,7.60
2022-11-16T00:05:37.264Z,7.30
2022-11-16T00:05:47.462Z,7.00
2022-11-16T00:05:57.312Z,6.90
2022-11-16T00:06:07.233Z,7.10
2022-11-16T00:06:17.274Z,7.50
2022-11-16T00:06:27.404Z,7.60
2022-11-16T00:06:37.249Z,7.90
2022-11-16T00:06:47.436Z,7.70
2022-11-16T00:06:57.425Z,8.00
2022-11-16T00:07:07.226Z,7.90
2022-11-16T00:07:17.519Z,7.70
2022-11-16T00:07:27.394Z,7.80
2022-11-16T00:07:37.415Z,7.70
2022-11-16T00:07:47.335Z,8.00
2022-11-16T00:07:57.317Z,7.70
2022-11-16T00:08:07.293Z,7.60
2022-11-16T00:08:17.205Z,7.00
2022-11-16T00:08:27.443Z,6.90
2022-11-16T00:08:37.347Z,7.20
2022-11-16T00:08:47.283Z,7.40
2022-11-16T00:08:57.341Z,7.60
2022-11-16T00:09:07.209Z,7.80
2022-11-16T00:09:17.422Z,7.80
2022-11-16T00:09:27.357Z,7.80
2022-11-16T00:09:37.364Z,7.20
2022-11-16T00:09:47.295Z,7.50
2022-11-16T00:09:57.192Z,7.40
2022-11-16T00:10:07.259Z,7.80
2022-11-16T00:10:17.160Z,7.60
2022-11-16T00:10:27.274Z,8.10
2022-11-16T00:10:37.217Z,8.00
2022-11-16T00:10:47.312Z,7.90
2022-11-16T00:10:57.502Z,7.30
2022-11-16T00:11:07.273Z,7.40
2022-11-16T00:11:17.223Z,7.40
2022-11-16T00:11:27.355Z,7.40
2022-11-16T00:11:37.171Z,7.20
2022-11-16T00:11:47.469Z,7.40
2022-11-16T00:11:57.332Z,7.40
2022-11-16T00:12:07.403Z,7.30
2022-11-16T00:12:17.234Z,7.30
2022-11-16T00:12:27.424Z,7.30
2022-11-16T00:12:37.341Z,7.40
2022-11-16T00:12:47.186Z,7.50
2022-11-16T00:12:57.316Z,7.70
2022-11-16T00:13:07.402Z,7.60
2022-11-16T00:13:17.368Z,7.60
2022-11-16T00:13:27.301Z,7.40
2022-11-16T00:13:37.202Z,7.80
2022-11-16T00:13:47.291Z,7.80
2022-11-16T00:13:57.343Z,7.90
2022-11-16T00:14:07.179Z,7.70
2022-11-16T00:14:17.324Z,7.50
2022-11-16T00:14:27.319Z,7.40
2022-11-16T00:14:37.438Z,7.50
2022-11-16T00:14:47.300Z,7.80
2022-11-16T00:14:57.351Z,7.90
2022-11-16T00:15:07.408Z,7.60
2022-11-16T00:15:17.172Z,7.40
2022-11-16T00:15:27.386Z,7.10
2022-11-16T00:15:37.389Z,7.30
2022-11-16T00:15:47.446Z,7.30
2022-11-16T00:15:57.443Z,7.40
2022-11-16T00:16:07.188Z,7.40
2022-11-16T00:16:17.272Z,7.30
2022-11-16T00:16:27.344Z,7.20
2022-11-16T00:16:37.471Z,7.20
2022-11-16T00:16:47.334Z,7.30
2022-11-16T00:16:57.444Z,7.50
2022-11-16T00:17:07.384Z,7.50
2022-11-16T00:17:17.187Z,7.30
2022-11-16T00:17:27.374Z,7.40
2022-11-16T00:17:37.209Z,7.30
2022-11-16T00:17:47.347Z,7.20
2022-11-16T00:17:57.347Z,7.20
2022-11-16T00:18:07.202Z,7.30
2022-11-16T00:18:17.322Z,7.70
2022-11-16T00:18:27.332Z,7.50
2022-11-16T00:18:37.394Z,7.40
2022-11-16T00:18:47.450Z,7.00
2022-11-16T00:18:57.180Z,6.90
2022-11-16T00:19:07.221Z,7.00
2022-11-16T00:19:17.339Z,7.20
2022-11-16T00:19:27.173Z,7.20
2022-11-16T00:19:37.335Z,7.20
2022-11-16T00:19:47.166Z,6.90
2022-11-16T00:19:57.286Z,7.10
2022-11-16T00:20:07.356Z,7.10
2022-11-16T00:20:17.278Z,7.40
2022-11-16T00:20:27.311Z,7.50
2022-11-16T00:20:37.409Z,7.50
2022-11-16T00:20:47.231Z,7.50
2022-11-16T00:20:57.292Z,7.50
2022-11-16T00:21:07.451Z,7.60
2022-11-16T00:21:17.433Z,7.60
2022-11-16T00:21:27.256Z,7.40
2022-11-16T00:21:37.354Z,7.60
2022-11-16T00:21:47.406Z,7.60
2022-11-16T00:21:57.310Z,7.40
2022-11-16T00:22:07.385Z,7.50
2022-11-16T00:22:17.408Z,7.60
2022-11-16T00:22:27.247Z,7.80
2022-11-16T00:22:37.259Z,7.20
2022-11-16T00:22:47.184Z,7.50
2022-11-16T00:22:57.302Z,7.50
2022-11-16T00:23:07.370Z,7.90
2022-11-16T00:23:17.451Z,7.40
2022-11-16T00:23:27.340Z,7.50
2022-11-16T00:23:37.228Z,7.30
2022-11-16T00:23:47.217Z,7.60
2022-11-16T00:23:57.194Z,7.50
2022-11-16T00:24:07.441Z,7.60
2022-11-16T00:24:17.164Z,7.50
2022-11-16T00:24:27.220Z,7.30
2022-11-16T00:24:37.339Z,7.10
2022-11-16T00:24:47.320Z,7.10
2022-11-16T00:24:57.283Z,7.30
2022-11-16T00:25:07.469Z,7.40
2022-11-16T00:25:17.446Z,7.50
2022-11-16T00:25:27.439Z,7.30
2022-11-16T00:25:37.245Z,7.50
2022-11-16T00:25:47.232Z,7.30
2022-11-16T00:25:57.216Z,7.60
2022-11-16T00:26:07.289Z,7.50
2022-11-16T00:26:17.332Z,7.40
2022-11-16T00:26:27.413Z,7.40
2022-11-16T00:26:37.288Z,7.30
2022-11-16T00:26:47.247Z,7.50
2022-11-16T00:26:57.358Z,7.70
2022-11-16T00:27:07.243Z,7.80
2022-11-16T00:27:17.400Z,7.60
2022-11-16T00:27:27.476Z,7.20
2022-11-16T00:27:37.428Z,7.10
2022-11-16T00:27:47.211Z,7.00
2022-11-16T00:27:57.256Z,7.20
2022-11-16T00:28:07.296Z,7.00
2022-11-16T00:28:17.268Z,7.30
2022-11-16T00:28:27.312Z,7.30
2022-11-16T00:28:37.302Z,7.60
2022-11-16T00:28:47.468Z,7.30
2022-11-16T00:28:57.344Z,7.20
2022-11-16T00:29:07.289Z,7.20
2022-11-16T00:29:17.411Z,7.30
2022-11-16T00:29:27.254Z,7.40
2022-11-16T00:29:37.372Z,7.30
2022-11-16T00:29:47.181Z,7.00
2022-11-16T00:29:57.219Z,7.00
2022-11-16T00:30:07.238Z,6.80
2022-11-16T00:30:17.372Z,7.30
2022-11-16T00:30:27.214Z,7.40
2022-11-16T00:30:37.262Z,7.20
2022-11-16T00:30:47.227Z,7.10
2022-11-16T00:30:57.381Z,7.00
2022-11-16T00:31:07.401Z,7.50
2022-11-16T00:31:17.281Z,7.20
2022-11-16T00:31:27.216Z,7.10
2022-11-16T00:31:37.304Z,6.90
2022-11-16T00:31:47.172Z,7.30
2022-11-16T00:31:57.426Z,7.60
2022-11-16T00:32:07.240Z,7.40
2022-11-16T00:32:17.326Z,7.40
2022-11-16T00:32:27.387Z,7.30
2022-11-16T00:32:37.384Z,7.50
2022-11-16T00:32:47.271Z,7.30
2022-11-16T00:32:57.216Z,7.10
2022-11-16T00:33:07.308Z,7.50
2022-11-16T00:33:17.414Z,7.50
2022-11-16T00:33:27.194Z,7.50
2022-11-16T00:33:37.367Z,7.20
2022-11-16T00:33:47.232Z,7.20
2022-11-16T00:33:57.236Z,7.20
2022-11-16T00:34:07.470Z,7.20
2022-11-16T00:34:17.241Z,7.30
2022-11-16T00:34:27.397Z,7.30
2022-11-16T00:34:37.297Z,7.10
2022-11-16T00:34:47.403Z,6.90
2022-11-16T00:34:57.372Z,6.60
2022-11-16T00:35:07.246Z,6.70
2022-11-16T00:35:17.358Z,6.90
2022-11-16T00:35:27.297Z,7.40
2022-11-16T00:35:37.405Z,7.50
2022-11-16T00:35:47.341Z,7.60
2022-11-16T00:35:57.182Z,7.30
2022-11-16T00:36:07.165Z,7.20
2022-11-16T00:36:17.275Z,7.10
2022-11-16T00:36:27.617Z,7.30
2022-11-16T00:36:37.274Z,7.30
2022-11-16T00:36:47.270Z,7.20
2022-11-16T00:36:57.486Z,7.30
2022-11-16T00:37:07.282Z,7.40
2022-11-16T00:37:17.291Z,7.40
2022-11-16T00:37:27.459Z,7.40
2022-11-16T00:37:37.281Z,7.20
2022-11-16T00:37:47.233Z,7.30
2022-11-16T00:37:57.342Z,7.50
2022-11-16T00:38:07.347Z,7.60
2022-11-16T00:38:17.468Z,7.90
2022-11-16T00:38:27.241Z,7.30
2022-11-16T00:38:37.367Z,7.10
2022-11-16T00:38:47.300Z,7.40
2022-11-16T00:38:57.198Z,7.60
2022-11-16T00:39:07.401Z,7.50
2022-11-16T00:39:17.333Z,7.10
2022-11-16T00:39:27.398Z,7.40
2022-11-16T00:39:37.257Z,7.40
2022-11-16T00:39:47.265Z,7.20
2022-11-16T00:39:57.357Z,6.80
2022-11-16T00:40:07.439Z,6.60
2022-11-16T00:40:17.391Z,6.70
2022-11-16T00:40:27.192Z,6.80
2022-11-16T00:40:37.328Z,6.80
2022-11-16T00:40:47.408Z,6.70
2022-11-16T00:40:57.442Z,7.00
2022-11-16T00:41:07.410Z,7.40
2022-11-16T00:41:17.185Z,7.40
2022-11-16T00:41:27.380Z,7.20
2022-11-16T00:41:37.249Z,6.80
2022-11-16T00:41:47.217Z,6.80
2022-11-16T00:41:57.240Z,7.10
2022-11-16T00:42:07.414Z,6.90
2022-11-16T00:42:17.324Z,7.20
2022-11-16T00:42:27.490Z,6.80
2022-11-16T00:42:37.438Z,7.20
2022-11-16T00:42:47.399Z,7.30
2022-11-16T00:42:57.236Z,7.50
2022-11-16T00:43:07.151Z,7.30
2022-11-16T00:43:17.161Z,6.90
2022-11-16T00:43:27.173Z,6.80
2022-11-16T00:43:37.355Z,7.30
2022-11-16T00:43:47.405Z,7.50
2022-11-16T00:43:57.190Z,7.40
2022-11-16T00:44:07.227Z,7.10
2022-11-16T00:44:17.330Z,7.10
2022-11-16T00:44:27.318Z,7.20
2022-11-16T00:44:37.409Z,7.00
2022-11-16T00:44:47.429Z,7.10
2022-11-16T00:44:57.403Z,6.90
2022-11-16T00:45:07.446Z,7.30
2022-11-16T00:45:17.306Z,7.20
2022-11-16T00:45:27.292Z,7.30
2022-11-16T00:45:37.341Z,7.10
2022-11-16T00:45:47.335Z,7.10
2022-11-16T00:45:57.464Z,7.20
2022-11-16T00:46:07.452Z,6.90
2022-11-16T00:46:17.445Z,6.80
2022-11-16T00:46:27.412Z,6.60
2022-11-16T00:46:37.440Z,7.10
2022-11-16T00:46:47.199Z,7.40
2022-11-16T00:46:57.321Z,7.60
2022-11-16T00:47:07.319Z,7.30
2022-11-16T00:47:17.177Z,6.90
2022-11-16T00:47:27.310Z,6.70
2022-11-16T00:47:37.250Z,7.10
2022-11-16T00:47:47.409Z,7.40
2022-11-16T00:48:00.416Z,7.70
2022-11-16T00:48:07.166Z,7.50
2022-11-16T00:48:17.432Z,7.30
2022-11-16T00:48:27.390Z,6.90
2022-11-16T00:48:37.164Z,6.80
2022-11-16T00:48:47.438Z,6.90
2022-11-16T00:48:57.393Z,6.90
2022-11-16T00:49:07.330Z,6.80
2022-11-16T00:49:17.606Z,6.80
2022-11-16T00:49:27.255Z,7.00
2022-11-16T00:49:37.329Z,7.00
2022-11-16T00:49:47.312Z,7.00
2022-11-16T00:49:57.308Z,7.10
2022-11-16T00:50:07.256Z,7.20
2022-11-16T00:50:17.414Z,7.30
2022-11-16T00:50:27.414Z,7.20
2022-11-16T00:50:37.387Z,7.20
2022-11-16T00:50:47.360Z,7.10
2022-11-16T00:50:57.166Z,6.90
2022-11-16T00:51:07.177Z,7.00
2022-11-16T00:51:17.379Z,7.00
2022-11-16T00:51:27.301Z,7.20
2022-11-16T00:51:37.247Z,7.10
2022-11-16T00:51:47.227Z,7.00
2022-11-16T00:51:57.309Z,7.00
2022-11-16T00:52:07.292Z,6.70
2022-11-16T00:52:17.325Z,6.60
2022-11-16T00:52:27.275Z,6.60
2022-11-16T00:52:37.211Z,6.70
2022-11-16T00:52:47.334Z,6.90
2022-11-16T00:52:57.385Z,6.60
2022-11-16T00:53:07.273Z,6.80
2022-11-16T00:53:17.302Z,6.70
2022-11-16T00:53:27.330Z,6.90
2022-11-16T00:53:37.400Z,6.40
2022-11-16T00:53:47.194Z,6.50
2022-11-16T00:53:57.172Z,6.80
2022-11-16T00:54:07.333Z,7.10
2022-11-16T00:54:17.231Z,7.00
2022-11-16T00:54:27.248Z,6.90
2022-11-16T00:54:37.250Z,7.00
2022-11-16T00:54:47.276Z,7.10
2022-11-16T00:54:57.417Z,7.00
2022-11-16T00:55:07.247Z,7.10
2022-11-16T00:55:17.470Z,6.90
2022-11-16T00:55:27.342Z,7.00
2022-11-16T00:55:37.275Z,6.90
2022-11-16T00:55:47.392Z,7.10
2022-11-16T00:55:57.215Z,7.00
2022-11-16T00:56:07.273Z,7.20
2022-11-16T00:56:17.188Z,7.20
2022-11-16T00:56:27.342Z,7.30
2022-11-16T00:56:37.306Z,7.40
2022-11-16T00:56:47.270Z,7.20
2022-11-16T00:56:57.259Z,7.50
2022-11-16T00:57:07.380Z,7.10
2022-11-16T00:57:17.382Z,7.40
2022-11-16T00:57:27.323Z,7.20
2022-11-16T00:57:37.341Z,7.10
2022-11-16T00:57:47.259Z,7.30
2022-11-16T00:57:57.436Z,7.40
2022-11-16T00:58:07.164Z,7.40
2022-11-16T00:58:17.216Z,7.30
2022-11-16T00:58:27.427Z,7.20
2022-11-16T00:58:37.349Z,7.20
2022-11-16T00:58:47.425Z,6.80
2022-11-16T00:58:57.166Z,6.80
2022-11-16T00:59:07.346Z,6.90
2022-11-16T00:59:17.298Z,7.30
2022-11-16T00:59:27.416Z,7.40
2022-11-16T00:59:37.256Z,7.40
2022-11-16T00:59:47.263Z,7.50
2022-11-16T00:59:57.479Z,7.60
2022-11-16T01:00:07.407Z,7.80
2022-11-16T01:00:17.276Z,7.50
2022-11-16T01:00:27.426Z,7.50
2022-11-16T01:00:37.476Z,7.20
2022-11-16T01:00:47.431Z,7.10
2022-11-16T01:00:57.423Z,6.80
2022-11-16T01:01:07.356Z,7.00
2022-11-16T01:01:17.266Z,7.10
2022-11-16T01:01:27.200Z,7.30
2022-11-16T01:01:37.354Z,7.20
2022-11-16T01:01:47.247Z,7.20
2022-11-16T01:01:57.412Z,7.10
2022-11-16T01:02:07.170Z,6.80
2022-11-16T01:02:17.348Z,6.90
2022-11-16T01:02:27.446Z,7.10
2022-11-16T01:02:37.284Z,7.30
2022-11-16T01:02:47.383Z,7.10
2022-11-16T01:02:57.442Z,7.10
2022-11-16T01:03:07.386Z,7.30
2022-11-16T01:03:17.347Z,7.40
2022-11-16T01:03:27.246Z,7.40
2022-11-16T01:03:37.479Z,7.10
2022-11-16T01:03:47.446Z,7.10
2022-11-16T01:03:57.248Z,6.90
2022-11-16T01:04:07.187Z,7.00
2022-11-16T01:04:17.356Z,6.80
2022-11-16T01:04:27.243Z,6.80
2022-11-16T01:04:37.368Z,7.00
2022-11-16T01:04:47.397Z,7.10
2022-11-16T01:04:57.226Z,7.20
2022-11-16T01:05:07.380Z,7.20
2022-11-16T01:05:17.484Z,7.20
2022-11-16T01:05:27.280Z,7.10
2022-11-16T01:05:37.303Z,6.90
2022-11-16T01:05:47.174Z,6.90
2022-11-16T01:05:57.313Z,6.90
2022-11-16T01:06:07.247Z,6.90
2022-11-16T01:06:17.399Z,6.90
2022-11-16T01:06:27.443Z,7.00
2022-11-16T01:06:37.449Z,6.80
2022-11-16T01:06:47.355Z,6.70
2022-11-16T01:06:57.298Z,6.50
2022-11-16T01:07:07.361Z,6.50
2022-11-16T01:07:17.495Z,6.40
2022-11-16T01:07:27.305Z,6.80
2022-11-16T01:07:37.296Z,7.00
2022-11-16T01:07:47.352Z,7.40
2022-11-16T01:07:57.272Z,7.40
2022-11-16T01:08:07.434Z,7.50
2022-11-16T01:08:17.417Z,7.50
2022-11-16T01:08:27.446Z,7.50
2022-11-16T01:08:37.299Z,7.30
2022-11-16T01:08:47.168Z,7.30
2022-11-16T01:08:57.338Z,6.80
2022-11-16T01:09:07.211Z,6.80
2022-11-16T01:09:17.192Z,6.70
2022-11-16T01:09:27.207Z,7.00
2022-11-16T01:09:37.347Z,7.20
2022-11-16T01:09:47.441Z,6.80
2022-11-16T01:09:57.375Z,6.70
2022-11-16T01:10:07.439Z,6.40
2022-11-16T01:10:17.321Z,6.50
2022-11-16T01:10:27.271Z,6.90
2022-11-16T01:10:37.391Z,7.10
2022-11-16T01:10:47.213Z,7.20
2022-11-16T01:10:57.369Z,7.20
2022-11-16T01:11:07.311Z,7.10
2022-11-16T01:11:17.337Z,7.00
2022-11-16T01:11:27.200Z,6.90
2022-11-16T01:11:37.482Z,6.70
2022-11-16T01:11:47.252Z,6.80
2022-11-16T01:11:57.182Z,6.90
2022-11-16T01:12:07.166Z,6.90
2022-11-16T01:12:17.179Z,6.80
2022-11-16T01:12:27.345Z,6.80
2022-11-16T01:12:37.239Z,6.90
2022-11-16T01:12:47.229Z,7.20
2022-11-16T01:12:57.269Z,7.10
2022-11-16T01:13:07.402Z,7.10
2022-11-16T01:13:17.394Z,7.10
2022-11-16T01:13:27.209Z,6.90
2022-11-16T01:13:37.301Z,6.70
2022-11-16T01:13:47.376Z,6.80
2022-11-16T01:13:57.298Z,7.00
2022-11-16T01:14:07.376Z,7.20
2022-11-16T01:14:17.389Z,7.20
2022-11-16T01:14:27.165Z,7.00
2022-11-16T01:14:37.446Z,7.10
2022-11-16T01:14:47.377Z,7.30
2022-11-16T01:14:57.223Z,7.20
2022-11-16T01:15:07.241Z,6.90
2022-11-16T01:15:17.269Z,6.70
2022-11-16T01:15:27.298Z,7.30
2022-11-16T01:15:37.283Z,7.60
2022-11-16T01:15:47.373Z,7.60
2022-11-16T01:15:57.324Z,7.10
2022-11-16T01:16:07.171Z,7.20
2022-11-16T01:16:17.457Z,7.10
2022-11-16T01:16:27.399Z,7.50
2022-11-16T01:16:37.526Z,7.40
2022-11-16T01:16:47.165Z,7.40
2022-11-16T01:16:57.414Z,6.90
2022-11-16T01:17:07.286Z,7.00
2022-11-16T01:17:17.370Z,7.00
2022-11-16T01:17:27.220Z,7.30
2022-11-16T01:17:37.190Z,7.40
2022-11-16T01:17:47.341Z,7.50
2022-11-16T01:17:57.215Z,7.70
2022-11-16T01:18:07.329Z,7.60
2022-11-16T01:18:17.194Z,7.50
2022-11-16T01:18:27.164Z,7.40
2022-11-16T01:18:37.413Z,7.60
2022-11-16T01:18:47.417Z,7.50
2022-11-16T01:18:57.158Z,7.50
2022-11-16T01:19:07.406Z,7.20
2022-11-16T01:19:17.336Z,7.10
2022-11-16T01:19:27.268Z,7.10
2022-11-16T01:19:37.445Z,7.80
2022-11-16T01:19:47.192Z,8.00
2022-11-16T01:19:57.356Z,7.90
2022-11-16T01:20:07.244Z,7.60
2022-11-16T01:20:17.218Z,7.40
2022-11-16T01:20:27.407Z,7.40
2022-11-16T01:20:37.422Z,7.50
2022-11-16T01:20:47.164Z,7.60
2022-11-16T01:20:57.315Z,7.50
2022-11-16T01:21:07.376Z,7.10
2022-11-16T01:21:17.412Z,6.90
2022-11-16T01:21:27.408Z,7.10
2022-11-16T01:21:37.303Z,7.50
2022-11-16T01:21:47.337Z,7.70
2022-11-16T01:21:57.193Z,7.50
2022-11-16T01:22:07.248Z,7.40
2022-11-16T01:22:17.332Z,6.90
2022-11-16T01:22:27.462Z,7.10
2022-11-16T01:22:37.309Z,7.10
2022-11-16T01:22:47.214Z,7.20
2022-11-16T01:22:57.286Z,7.20
2022-11-16T01:23:07.350Z,7.40
2022-11-16T01:23:17.454Z,7.30
2022-11-16T01:23:27.379Z,7.30
2022-11-16T01:23:37.429Z,7.30
2022-11-16T01:23:47.358Z,7.60
2022-11-16T01:23:57.432Z,7.50
2022-11-16T01:24:07.377Z,7.60
2022-11-16T01:24:17.289Z,7.40
2022-11-16T01:24:27.320Z,7.60
2022-11-16T01:24:37.435Z,7.30
2022-11-16T01:24:47.268Z,7.60
2022-11-16T01:24:57.299Z,7.50
2022-11-16T01:25:07.281Z,7.60
2022-11-16T01:25:17.238Z,7.40
2022-11-16T01:25:27.159Z,7.40
2022-11-16T01:25:37.455Z,7.20
2022-11-16T01:25:47.157Z,7.40
2022-11-16T01:25:57.371Z,7.50
2022-11-16T01:26:07.292Z,7.30
2022-11-16T01:26:17.312Z,7.20
2022-11-16T01:26:27.164Z,7.00
2022-11-16T01:26:37.265Z,7.40
2022-11-16T01:26:47.335Z,7.50
2022-11-16T01:26:57.189Z,7.50
2022-11-16T01:27:07.341Z,7.40
2022-11-16T01:27:17.409Z,7.20
2022-11-16T01:27:27.442Z,7.30
2022-11-16T01:27:37.230Z,7.30
2022-11-16T01:27:47.256Z,7.30
2022-11-16T01:27:57.219Z,7.50
2022-11-16T01:28:07.252Z,7.50
2022-11-16T01:28:17.151Z,7.70
2022-11-16T01:28:27.195Z,7.80
2022-11-16T01:28:37.380Z,7.90
2022-11-16T01:28:47.439Z,7.80
2022-11-16T01:28:57.195Z,7.70
2022-11-16T01:29:07.353Z,7.40
2022-11-16T01:29:17.160Z,7.60
2022-11-16T01:29:27.290Z,7.60
2022-11-16T01:29:37.362Z,7.80
2022-11-16T01:29:47.381Z,7.90
2022-11-16T01:29:57.233Z,8.00
2022-11-16T01:30:07.170Z,8.00
2022-11-16T01:30:17.396Z,7.70
2022-11-16T01:30:27.243Z,7.40
2022-11-16T01:30:37.204Z,7.50
2022-11-16T01:30:47.215Z,7.30
2022-11-16T01:30:57.243Z,7.40
2022-11-16T01:31:07.398Z,7.60
2022-11-16T01:31:17.217Z,8.00
2022-11-16T01:31:27.235Z,8.20
2022-11-16T01:31:37.264Z,8.00
2022-11-16T01:31:47.349Z,8.10
2022-11-16T01:31:57.281Z,8.00
2022-11-16T01:32:07.364Z,7.90
2022-11-16T01:32:17.326Z,7.50
2022-11-16T01:32:27.222Z,7.90
2022-11-16T01:32:37.419Z,8.30
2022-11-16T01:32:47.407Z,8.40
2022-11-16T01:32:57.208Z,8.60
2022-11-16T01:33:07.180Z,8.40
2022-11-16T01:33:17.258Z,8.60
2022-11-16T01:33:27.234Z,8.40
2022-11-16T01:33:37.278Z,8.70
2022-11-16T01:33:47.391Z,8.40
2022-11-16T01:33:57.214Z,8.50
2022-11-16T01:34:07.356Z,8.20
2022-11-16T01:34:17.370Z,8.00
2022-11-16T01:34:27.442Z,7.90
2022-11-16T01:34:37.365Z,7.80
2022-11-16T01:34:47.358Z,8.00
2022-11-16T01:34:57.202Z,8.10
2022-11-16T01:35:07.368Z,8.40
2022-11-16T01:35:17.326Z,8.70
2022-11-16T01:35:27.413Z,9.10
2022-11-16T01:35:37.320Z,9.00
2022-11-16T01:35:47.204Z,8.90
2022-11-16T01:35:57.381Z,8.50
2022-11-16T01:36:07.197Z,8.50
2022-11-16T01:36:17.248Z,8.60
2022-11-16T01:36:27.357Z,8.70
2022-11-16T01:36:37.311Z,8.50
2022-11-16T01:36:47.161Z,8.50
2022-11-16T01:36:57.324Z,8.40
2022-11-16T01:37:07.244Z,8.30
2022-11-16T01:37:17.249Z,8.50
2022-11-16T01:37:27.229Z,8.40
2022-11-16T01:37:37.314Z,8.60
2022-11-16T01:37:47.309Z,8.30
2022-11-16T01:37:57.407Z,8.30
2022-11-16T01:38:07.189Z,8.30
2022-11-16T01:38:17.177Z,8.60
2022-11-16T01:38:29.925Z,8.90
2022-11-16T01:38:37.338Z,8.90
2022-11-16T01:38:47.180Z,8.70
2022-11-16T01:38:57.201Z,8.40
2022-11-16T01:39:07.374Z,8.30
2022-11-16T01:39:17.385Z,8.30
2022-11-16T01:39:27.223Z,8.50
2022-11-16T01:39:37.431Z,8.70
2022-11-16T01:39:47.280Z,8.70
2022-11-16T01:39:57.321Z,8.50
2022-11-16T01:40:07.329Z,8.70
2022-11-16T01:40:17.363Z,8.50
2022-11-16T01:40:27.411Z,8.60
2022-11-16T01:40:37.287Z,8.30
2022-11-16T01:40:47.201Z,8.30
2022-11-16T01:40:57.355Z,8.70
2022-11-16T01:41:07.284Z,8.70
2022-11-16T01:41:17.203Z,8.50
2022-11-16T01:41:27.238Z,8.40
2022-11-16T01:41:37.265Z,8.20
2022-11-16T01:41:47.362Z,8.70
2022-11-16T01:41:57.184Z,8.50
2022-11-16T01:42:07.350Z,8.60
2022-11-16T01:42:17.427Z,8.50
2022-11-16T01:42:27.375Z,8.60
2022-11-16T01:42:37.470Z,8.60
2022-11-16T01:42:47.413Z,8.30
2022-11-16T01:42:57.356Z,7.90
2022-11-16T01:43:07.180Z,7.90
2022-11-16T01:43:17.449Z,8.20
2022-11-16T01:43:27.196Z,8.40
2022-11-16T01:43:37.377Z,8.50
2022-11-16T01:43:47.403Z,8.40
2022-11-16T01:43:57.302Z,8.40
2022-11-16T01:44:07.228Z,8.80
2022-11-16T01:44:17.229Z,9.00
2022-11-16T01:44:27.290Z,8.90
2022-11-16T01:44:37.399Z,8.60
2022-11-16T01:44:47.263Z,8.50
2022-11-16T01:44:57.206Z,8.90
2022-11-16T01:45:07.407Z,9.10
2022-11-16T01:45:17.381Z,8.80
2022-11-16T01:45:27.353Z,8.70
2022-11-16T01:45:37.315Z,8.60
2022-11-16T01:45:47.421Z,8.60
2022-11-16T01:45:57.150Z,8.50
2022-11-16T01:46:07.423Z,8.60
2022-11-16T01:46:17.349Z,8.80
2022-11-16T01:46:27.445Z,9.00
2022-11-16T01:46:37.347Z,9.30
2022-11-16T01:46:47.315Z,9.30
2022-11-16T01:46:57.354Z,9.30
2022-11-16T01:47:07.305Z,9.30
2022-11-16T01:47:17.459Z,9.30
2022-11-16T01:47:27.391Z,9.20
2022-11-16T01:47:37.425Z,9.20
2022-11-16T01:47:47.431Z,9.10
2022-11-16T01:47:57.431Z,9.10
2022-11-16T01:48:07.404Z,9.30
2022-11-16T01:48:17.471Z,9.10
2022-11-16T01:48:27.528Z,8.90
2022-11-16T01:48:37.792Z,9.20
2022-11-16T01:48:47.457Z,9.40
2022-11-16T01:48:57.258Z,9.50
2022-11-16T01:49:07.311Z,9.10
2022-11-16T01:49:17.370Z,9.10
2022-11-16T01:49:27.255Z,9.10
2022-11-16T01:49:37.387Z,9.10
2022-11-16T01:49:47.364Z,9.10
2022-11-16T01:49:57.300Z,9.40
2022-11-16T01:50:07.187Z,9.20
2022-11-16T01:50:17.254Z,9.30
2022-11-16T01:50:27.223Z,9.40
2022-11-16T01:50:37.313Z,9.50
2022-11-16T01:50:47.446Z,9.30
2022-11-16T01:50:57.174Z,9.00
2022-11-16T01:51:07.296Z,9.20
2022-11-16T01:51:17.333Z,9.30
2022-11-16T01:51:27.311Z,9.20
2022-11-16T01:51:37.543Z,8.90
2022-11-16T01:51:47.428Z,8.90
2022-11-16T01:51:57.468Z,9.20
2022-11-16T01:52:07.220Z,9.60
2022-11-16T01:52:17.471Z,9.90
2022-11-16T01:52:27.352Z,9.90
2022-11-16T01:52:37.200Z,9.70
2022-11-16T01:52:47.361Z,9.30
2022-11-16T01:52:57.431Z,9.00
2022-11-16T01:53:07.458Z,9.00
2022-11-16T01:53:17.268Z,9.00
2022-11-16T01:53:27.266Z,9.20
2022-11-16T01:53:37.200Z,9.20
2022-11-16T01:53:47.395Z,9.30
2022-11-16T01:53:57.287Z,9.20
2022-11-16T01:54:07.314Z,9.10
2022-11-16T01:54:17.474Z,9.20
2022-11-16T01:54:27.312Z,9.30
2022-11-16T01:54:37.456Z,9.10
2022-11-16T01:54:47.326Z,9.20
2022-11-16T01:54:57.326Z,9.30
2022-11-16T01:55:07.382Z,9.40
2022-11-16T01:55:17.419Z,9.40
2022-11-16T01:55:27.289Z,9.20
2022-11-16T01:55:37.369Z,9.20
2022-11-16T01:55:47.254Z,9.20
2022-11-16T01:55:57.368Z,9.40
2022-11-16T01:56:07.317Z,9.50
2022-11-16T01:56:17.326Z,9.30
2022-11-16T01:56:27.319Z,9.70
2022-11-16T01:56:37.285Z,9.70
2022-11-16T01:56:47.261Z,9.50
2022-11-16T01:56:57.195Z,9.30
2022-11-16T01:57:07.363Z,9.30
2022-11-16T01:57:17.307Z,9.50
2022-11-16T01:57:27.249Z,9.70
2022-11-16T01:57:37.430Z,10.00
2022-11-16T01:57:47.321Z,10.30
2022-11-16T01:57:57.438Z,10.10
2022-11-16T01:58:07.250Z,9.80
2022-11-16T01:58:17.419Z,9.60
2022-11-16T01:58:27.334Z,9.90
2022-11-16T01:58:37.254Z,9.90
2022-11-16T01:58:47.432Z,10.00
2022-11-16T01:58:57.288Z,10.50
2022-11-16T01:59:07.421Z,10.80
2022-11-16T01:59:17.273Z,10.60
2022-11-16T01:59:27.300Z,10.30
2022-11-16T01:59:37.287Z,10.10
2022-11-16T01:59:47.372Z,10.00
2022-11-16T01:59:57.367Z,9.90
2022-11-16T02:00:07.337Z,9.90
2022-11-16T02:00:17.282Z,10.00
2022-11-16T02:00:27.180Z,9.90
2022-11-16T02:00:37.257Z,10.20
2022-11-16T02:00:47.405Z,10.40
2022-11-16T02:00:57.298Z,10.70
2022-11-16T02:01:07.297Z,10.90
2022-11-16T02:01:17.278Z,10.80
2022-11-16T02:01:27.310Z,10.50
2022-11-16T02:01:37.348Z,10.10
2022-11-16T02:01:47.474Z,10.20
2022-11-16T02:01:57.455Z,10.50
2022-11-16T02:02:07.212Z,10.60
2022-11-16T02:02:17.306Z,10.40
2022-11-16T02:02:27.476Z,10.40
2022-11-16T02:02:37.216Z,10.60
2022-11-16T02:02:47.423Z,10.90
2022-11-16T02:02:57.373Z,10.70
2022-11-16T02:03:07.288Z,10.90
2022-11-16T02:03:17.244Z,10.80
2022-11-16T02:03:27.152Z,10.80
2022-11-16T02:03:37.388Z,10.70
2022-11-16T02:03:47.200Z,10.80
2022-11-16T02:03:57.260Z,11.00
2022-11-16T02:04:07.443Z,11.20
2022-11-16T02:04:17.463Z,11.40
2022-11-16T02:04:27.405Z,11.50
2022-11-16T02:04:37.179Z,11.00
2022-11-16T02:04:47.274Z,10.90
2022-11-16T02:04:57.368Z,10.70
2022-11-16T02:05:07.347Z,10.70
2022-11-16T02:05:17.309Z,10.80
2022-11-16T02:05:27.294Z,11.20
2022-11-16T02:05:37.300Z,11.40
2022-11-16T02:05:47.445Z,11.40
2022-11-16T02:05:57.479Z,11.30
2022-11-16T02:06:07.248Z,11.70
2022-11-16T02:06:17.162Z,11.40
2022-11-16T02:06:27.277Z,10.90
2022-11-16T02:06:37.344Z,10.70
2022-11-16T02:06:47.354Z,11.10
2022-11-16T02:06:57.346Z,11.60
2022-11-16T02:07:07.292Z,11.80
2022-11-16T02:07:17.552Z,11.60
2022-11-16T02:07:27.404Z,11.50
2022-11-16T02:07:37.320Z,11.40
2022-11-16T02:07:47.241Z,11.10
2022-11-16T02:07:57.309Z,11.10
2022-11-16T02:08:07.170Z,11.10
2022-11-16T02:08:17.281Z,11.60
2022-11-16T02:08:27.210Z,11.90
2022-11-16T02:08:37.278Z,11.80
2022-11-16T02:08:47.302Z,11.80
2022-11-16T02:08:57.317Z,11.60
2022-11-16T02:09:07.353Z,12.40
2022-11-16T02:09:17.217Z,12.30
2022-11-16T02:09:27.374Z,12.30
2022-11-16T02:09:37.189Z,12.10
2022-11-16T02:09:47.195Z,12.00
2022-11-16T02:09:57.320Z,12.00
2022-11-16T02:10:07.380Z,12.00
2022-11-16T02:10:17.435Z,12.20
2022-11-16T02:10:27.163Z,12.20
2022-11-16T02:10:37.408Z,12.00
2022-11-16T02:10:47.173Z,12.40
2022-11-16T02:10:57.459Z,12.70
2022-11-16T02:11:07.161Z,12.80
2022-11-16T02:11:17.254Z,12.40
2022-11-16T02:11:27.468Z,12.50
2022-11-16T02:11:37.235Z,12.30
2022-11-16T02:11:47.266Z,12.60
2022-11-16T02:11:57.211Z,12.90
2022-11-16T02:12:07.159Z,12.60
2022-11-16T02:12:17.306Z,12.80
2022-11-16T02:12:27.437Z,12.40
2022-11-16T02:12:37.164Z,12.40